createdAt,value
2019-03-22T00:03:21.131Z,90.72
2019-03-22T00:08:17.163Z,91.23
2019-03-22T00:13:13.086Z,90.35
2019-03-22T00:18:09.028Z,89.60
2019-03-22T00:23:04.946Z,89.37
2019-03-22T00:28:00.917Z,89.41
2019-03-22T00:32:56.899Z,89.54
2019-03-22T00:37:52.817Z,89.61
2019-03-22T00:42:48.747Z,90.10
2019-03-22T00:47:44.673Z,90.18
2019-03-22T00:52:40.598Z,89.71
2019-03-22T00:57:36.623Z,89.57
2019-03-22T01:02:32.550Z,89.65
2019-03-22T01:07:28.472Z,89.55
2019-03-22T01:12:24.391Z,89.81
2019-03-22T01:17:20.312Z,90.00
2019-03-22T01:22:16.307Z,90.17
2019-03-22T01:27:12.323Z,90.62
2019-03-22T01:32:08.257Z,90.76
2019-03-22T01:37:04.230Z,91.05
2019-03-22T01:42:00.167Z,91.19
2019-03-22T01:46:56.106Z,89.72
2019-03-22T01:51:52.541Z,90.47
2019-03-22T01:56:48.495Z,90.46
2019-03-22T02:01:44.422Z,89.84
2019-03-22T02:06:40.340Z,90.53
2019-03-22T02:11:36.259Z,91.23
2019-03-22T02:16:32.182Z,91.82
2019-03-22T02:21:29.548Z,92.46
2019-03-22T02:26:25.756Z,92.31
2019-03-22T02:31:21.676Z,92.56
2019-03-22T02:36:17.641Z,93.00
2019-03-22T02:41:13.565Z,92.39
2019-03-22T02:46:09.520Z,92.43
2019-03-22T02:51:05.456Z,91.75
2019-03-22T02:56:01.608Z,91.99
2019-03-22T03:00:57.828Z,91.95
2019-03-22T03:05:53.799Z,91.93
2019-03-22T03:10:49.934Z,92.57
2019-03-22T03:15:45.860Z,93.36
2019-03-22T03:20:41.813Z,93.67
2019-03-22T03:25:37.854Z,93.92
2019-03-22T03:30:33.781Z,94.13
2019-03-22T03:35:29.711Z,92.97
2019-03-22T03:40:25.640Z,93.69
2019-03-22T03:45:35.633Z,94.18
2019-03-22T03:50:31.669Z,94.42
2019-03-22T03:55:27.687Z,94.48
2019-03-22T04:00:23.671Z,94.78
2019-03-22T04:05:20.634Z,94.45
2019-03-22T04:10:16.645Z,93.98
2019-03-22T04:15:12.799Z,93.73
2019-03-22T04:20:08.938Z,93.77
2019-03-22T04:25:05.886Z,94.09
2019-03-22T04:30:02.254Z,94.02
2019-03-22T04:34:58.181Z,93.94
2019-03-22T04:39:54.330Z,94.23
2019-03-22T04:44:50.255Z,94.66
2019-03-22T04:49:47.206Z,94.06
2019-03-22T04:54:45.602Z,94.19
2019-03-22T04:59:42.217Z,94.31
2019-03-22T05:04:38.625Z,94.13
2019-03-22T05:09:35.154Z,94.10
2019-03-22T05:14:32.576Z,94.42
2019-03-22T05:19:50.272Z,94.76
2019-03-22T05:24:47.297Z,95.05
2019-03-22T05:29:45.113Z,95.22
2019-03-22T05:34:41.218Z,95.18
2019-03-22T05:39:37.193Z,95.44
2019-03-22T05:44:33.182Z,95.25
2019-03-22T05:49:36.580Z,94.47
2019-03-22T05:54:33.866Z,94.08
2019-03-22T05:59:41.847Z,93.06
2019-03-22T06:04:31.025Z,91.26
2019-03-22T06:09:27.138Z,88.89
2019-03-22T06:14:23.239Z,86.94
2019-03-22T06:19:19.168Z,86.22
2019-03-22T06:24:17.144Z,86.64
2019-03-22T06:29:13.177Z,87.61
2019-03-22T06:34:09.104Z,89.03
2019-03-22T06:39:06.227Z,89.23
2019-03-22T06:44:02.158Z,88.25
2019-03-22T06:48:58.070Z,87.39
2019-03-22T06:53:53.999Z,87.33
2019-03-22T06:58:49.954Z,87.25
2019-03-22T07:03:45.872Z,86.70
2019-03-22T07:08:43.601Z,84.82
2019-03-22T07:13:39.606Z,84.25
2019-03-22T07:18:35.559Z,83.50
2019-03-22T07:23:33.283Z,82.68
2019-03-22T07:28:29.440Z,81.98
2019-03-22T07:33:27.770Z,81.27
2019-03-22T07:38:23.793Z,81.21
2019-03-22T07:43:19.711Z,80.89
2019-03-22T07:48:15.633Z,79.59
2019-03-22T07:53:11.640Z,78.43
2019-03-22T07:58:07.623Z,76.80
2019-03-22T08:03:03.631Z,76.48
2019-03-22T08:07:59.550Z,75.56
2019-03-22T08:12:55.475Z,74.41
2019-03-22T08:17:51.817Z,74.24
2019-03-22T08:22:47.925Z,75.42
2019-03-22T08:27:43.846Z,72.61
2019-03-22T08:32:39.865Z,71.87
2019-03-22T08:37:35.790Z,72.56
2019-03-22T08:42:31.759Z,70.93
2019-03-22T08:47:33.907Z,68.72
2019-03-22T08:52:26.243Z,67.40
2019-03-22T08:57:24.805Z,65.62
2019-03-22T09:02:20.079Z,61.57
2019-03-22T09:07:16.009Z,60.54
2019-03-22T09:12:12.051Z,58.94
2019-03-22T09:17:07.978Z,56.32
2019-03-22T09:22:03.890Z,54.03
2019-03-22T09:26:59.903Z,55.21
2019-03-22T09:31:55.790Z,53.90
2019-03-22T09:36:51.796Z,53.42
2019-03-22T09:41:47.724Z,54.06
2019-03-22T09:46:43.660Z,53.18
2019-03-22T09:51:39.566Z,53.09
2019-03-22T09:56:46.339Z,52.63
2019-03-22T10:01:33.350Z,50.76
2019-03-22T10:06:29.309Z,51.84
2019-03-22T10:11:25.208Z,51.47
2019-03-22T10:16:21.177Z,50.80
2019-03-22T10:21:22.214Z,51.17
2019-03-22T10:26:14.892Z,50.29
2019-03-22T10:31:10.825Z,50.40
2019-03-22T10:36:06.731Z,50.07
2019-03-22T10:41:02.658Z,48.35
2019-03-22T10:45:59.552Z,49.10
2019-03-22T10:50:55.568Z,48.78
2019-03-22T10:55:51.635Z,48.25
2019-03-22T11:00:47.556Z,48.50
2019-03-22T11:05:43.584Z,47.00
2019-03-22T11:10:39.505Z,47.69
2019-03-22T11:15:35.428Z,47.85
2019-03-22T11:20:31.355Z,46.34
2019-03-22T11:25:27.274Z,45.77
2019-03-22T11:30:23.193Z,44.91
2019-03-22T11:35:19.120Z,44.28
2019-03-22T11:40:16.449Z,46.89
2019-03-22T11:45:17.792Z,44.56
2019-03-22T11:50:13.943Z,43.54
2019-03-22T11:55:11.767Z,44.00
2019-03-22T12:00:17.691Z,43.73
2019-03-22T12:05:14.215Z,43.11
2019-03-22T12:10:12.845Z,43.62
2019-03-22T12:15:11.068Z,43.32
2019-03-22T12:20:10.292Z,44.38
2019-03-22T12:25:08.138Z,42.99
2019-03-22T12:30:10.308Z,43.47
2019-03-22T12:35:06.729Z,42.83
2019-03-22T12:40:07.862Z,42.71
2019-03-22T12:45:10.210Z,40.99
2019-03-22T12:50:06.528Z,41.70
2019-03-22T12:55:06.165Z,42.30
2019-03-22T13:00:05.598Z,41.02
2019-03-22T13:05:01.716Z,41.97
2019-03-22T13:10:01.308Z,42.61
2019-03-22T13:14:59.665Z,40.27
2019-03-22T13:19:55.786Z,41.03
2019-03-22T13:24:57.520Z,40.90
2019-03-22T13:29:55.891Z,40.61
2019-03-22T13:34:51.893Z,40.11
2019-03-22T13:39:47.830Z,40.26
2019-03-22T13:44:43.852Z,40.02
2019-03-22T13:49:39.776Z,41.11
2019-03-22T13:54:36.557Z,41.28
2019-03-22T13:59:32.455Z,40.62
2019-03-22T14:04:28.379Z,40.36
2019-03-22T14:09:24.301Z,39.38
2019-03-22T14:14:20.299Z,41.02
2019-03-22T14:19:16.221Z,42.22
2019-03-22T14:24:20.899Z,40.49
2019-03-22T14:29:16.911Z,42.57
2019-03-22T14:34:12.835Z,40.84
2019-03-22T14:39:08.855Z,39.93
2019-03-22T14:44:04.877Z,40.15
2019-03-22T14:49:00.906Z,41.01
2019-03-22T14:54:03.972Z,40.53
2019-03-22T14:58:59.990Z,40.48
2019-03-22T15:03:55.917Z,41.18
2019-03-22T15:08:51.857Z,39.53
2019-03-22T15:13:52.465Z,38.47
2019-03-22T15:19:02.421Z,38.15
2019-03-22T15:24:29.598Z,38.21
2019-03-22T15:29:39.817Z,39.01
2019-03-22T15:34:55.932Z,38.35
2019-03-22T15:39:56.725Z,39.39
2019-03-22T15:44:52.791Z,39.24
2019-03-22T15:49:48.821Z,39.32
2019-03-22T15:54:45.352Z,39.12
2019-03-22T15:59:41.445Z,39.12
2019-03-22T16:04:37.369Z,40.00
2019-03-22T16:09:33.287Z,40.34
2019-03-22T16:14:29.239Z,39.32
2019-03-22T16:19:25.161Z,39.92
2019-03-22T16:24:25.000Z,39.54
2019-03-22T16:29:20.919Z,40.68
2019-03-22T16:34:16.846Z,39.72
2019-03-22T16:39:12.760Z,39.60
2019-03-22T16:44:08.687Z,40.03
2019-03-22T16:49:04.620Z,40.59
2019-03-22T16:54:00.637Z,39.61
2019-03-22T16:58:56.563Z,38.91
2019-03-22T17:03:52.582Z,39.62
2019-03-22T17:08:48.500Z,39.01
2019-03-22T17:13:44.430Z,39.24
2019-03-22T17:18:40.361Z,39.55
2019-03-22T17:23:36.280Z,40.72
2019-03-22T17:28:32.210Z,42.30
2019-03-22T17:33:28.338Z,43.74
2019-03-22T17:38:24.262Z,44.98
2019-03-22T17:43:20.219Z,46.28
2019-03-22T17:48:16.141Z,46.92
2019-03-22T17:53:12.061Z,49.01
2019-03-22T17:58:08.009Z,50.19
2019-03-22T18:03:03.932Z,52.01
2019-03-22T18:07:59.847Z,52.68
2019-03-22T18:12:55.783Z,53.35
2019-03-22T18:17:51.710Z,53.97
2019-03-22T18:22:47.635Z,54.19
2019-03-22T18:27:43.567Z,55.06
2019-03-22T18:32:39.495Z,55.22
2019-03-22T18:37:35.531Z,56.25
2019-03-22T18:42:31.453Z,57.14
2019-03-22T18:47:27.668Z,58.25
2019-03-22T18:52:23.622Z,58.90
2019-03-22T18:57:19.632Z,59.15
2019-03-22T19:02:15.651Z,59.75
2019-03-22T19:07:11.653Z,60.54
2019-03-22T19:12:07.726Z,61.01
2019-03-22T19:17:03.672Z,61.57
2019-03-22T19:22:01.083Z,61.69
2019-03-22T19:26:57.980Z,61.33
2019-03-22T19:32:00.596Z,61.02
2019-03-22T19:37:02.349Z,60.32
2019-03-22T19:42:05.827Z,60.04
2019-03-22T19:47:07.108Z,59.71
2019-03-22T19:52:07.571Z,59.99
2019-03-22T20:02:27.621Z,60.63
2019-03-22T20:07:31.523Z,61.07
2019-03-22T20:12:29.133Z,61.69
2019-03-22T20:17:30.259Z,61.87
2019-03-22T20:22:35.544Z,62.82
2019-03-22T20:27:34.211Z,63.20
2019-03-22T20:32:33.159Z,64.59
2019-03-22T20:42:51.434Z,65.95
2019-03-22T20:47:48.357Z,67.14
2019-03-22T20:52:50.896Z,67.60
2019-03-22T20:57:51.231Z,66.71
2019-03-22T21:02:50.137Z,67.29
2019-03-22T21:07:49.038Z,66.79
2019-03-22T21:12:49.799Z,65.15
2019-03-22T21:17:53.835Z,67.57
2019-03-22T21:22:55.646Z,66.34
2019-03-22T21:27:56.067Z,67.17
2019-03-22T21:32:55.765Z,68.74
2019-03-22T21:37:53.936Z,69.54
2019-03-22T21:42:51.439Z,70.46
2019-03-22T21:47:49.213Z,70.98
2019-03-22T21:52:46.404Z,71.48
2019-03-22T21:57:43.664Z,71.94
2019-03-22T22:02:40.614Z,71.37
2019-03-22T22:07:38.533Z,71.70
2019-03-22T22:12:35.493Z,73.25
2019-03-22T22:17:31.536Z,74.31
2019-03-22T22:22:27.452Z,75.52
2019-03-22T22:27:23.379Z,74.66
2019-03-22T22:32:19.853Z,75.74
2019-03-22T22:37:15.776Z,76.42
2019-03-22T22:42:11.750Z,76.78
2019-03-22T22:47:07.785Z,77.45
2019-03-22T22:52:03.718Z,77.96
2019-03-22T22:56:59.695Z,76.59
2019-03-22T23:01:55.821Z,77.90
2019-03-22T23:06:51.842Z,78.20
2019-03-22T23:11:47.770Z,77.80
2019-03-22T23:16:43.706Z,78.51
2019-03-22T23:21:39.751Z,78.01
2019-03-22T23:26:35.687Z,79.08
2019-03-22T23:31:31.639Z,79.82
2019-03-22T23:36:27.575Z,78.33
2019-03-22T23:41:23.511Z,79.16
2019-03-22T23:46:19.454Z,80.29
2019-03-22T23:51:15.483Z,81.01
2019-03-22T23:56:11.413Z,81.63
